sensor_id;sensor_type;location;lat;lon;timestamp;temperature;humidity
53904;DHT22;39812;52.430;16.936;2022-12-05T00:01:39;2.10;99.90
53904;DHT22;39812;52.430;16.936;2022-12-05T00:04:11;2.10;99.90
53904;DHT22;39812;52.430;16.936;2022-12-05T00:06:38;2.10;99.90
53904;DHT22;39812;52.430;16.936;2022-12-05T00:09:05;2.10;99.90
53904;DHT22;39812;52.430;16.936;2022-12-05T00:11:33;2.10;99.90
53904;DHT22;39812;52.430;16.936;2022-12-05T00:14:00;2.00;99.90
53904;DHT22;39812;52.430;16.936;2022-12-05T00:16:27;2.10;99.90
53904;DHT22;39812;52.430;16.936;2022-12-05T00:18:53;2.10;99.90
53904;DHT22;39812;52.430;16.936;2022-12-05T00:21:24;2.10;99.90
53904;DHT22;39812;52.430;16.936;2022-12-05T00:23:51;2.10;99.90
53904;DHT22;39812;52.430;16.936;2022-12-05T00:26:17;2.20;99.90
53904;DHT22;39812;52.430;16.936;2022-12-05T00:28:43;2.20;99.90
53904;DHT22;39812;52.430;16.936;2022-12-05T00:31:11;2.20;99.90
53904;DHT22;39812;52.430;16.936;2022-12-05T00:33:37;2.20;99.90
53904;DHT22;39812;52.430;16.936;2022-12-05T00:36:05;2.10;99.90
53904;DHT22;39812;52.430;16.936;2022-12-05T00:38:31;2.20;99.90
53904;DHT22;39812;52.430;16.936;2022-12-05T00:41:12;2.10;99.90
53904;DHT22;39812;52.430;16.936;2022-12-05T00:43:38;2.10;99.90
53904;DHT22;39812;52.430;16.936;2022-12-05T00:46:06;2.10;99.90
53904;DHT22;39812;52.430;16.936;2022-12-05T00:48:32;2.10;99.90
53904;DHT22;39812;52.430;16.936;2022-12-05T00:51:10;2.10;99.90
53904;DHT22;39812;52.430;16.936;2022-12-05T00:53:36;2.20;99.90
53904;DHT22;39812;52.430;16.936;2022-12-05T00:56:09;2.10;99.90
53904;DHT22;39812;52.430;16.936;2022-12-05T00:58:34;2.10;99.90
53904;DHT22;39812;52.430;16.936;2022-12-05T01:01:21;2.10;99.90
53904;DHT22;39812;52.430;16.936;2022-12-05T01:03:48;2.10;99.90
53904;DHT22;39812;52.430;16.936;2022-12-05T01:06:16;2.10;99.90
53904;DHT22;39812;52.430;16.936;2022-12-05T01:08:41;2.00;99.90
53904;DHT22;39812;52.430;16.936;2022-12-05T01:11:08;2.10;99.90
53904;DHT22;39812;52.430;16.936;2022-12-05T01:13:34;2.10;99.90
53904;DHT22;39812;52.430;16.936;2022-12-05T01:16:00;2.00;99.90
53904;DHT22;39812;52.430;16.936;2022-12-05T01:18:27;2.10;99.90
53904;DHT22;39812;52.430;16.936;2022-12-05T01:20:53;2.10;99.90
53904;DHT22;39812;52.430;16.936;2022-12-05T01:23:19;2.00;99.90
53904;DHT22;39812;52.430;16.936;2022-12-05T01:25:47;2.00;99.90
53904;DHT22;39812;52.430;16.936;2022-12-05T01:28:13;2.00;99.90
53904;DHT22;39812;52.430;16.936;2022-12-05T01:30:40;2.10;99.90
53904;DHT22;39812;52.430;16.936;2022-12-05T01:33:07;2.10;99.90
53904;DHT22;39812;52.430;16.936;2022-12-05T01:35:34;2.10;99.90
53904;DHT22;39812;52.430;16.936;2022-12-05T01:37:59;2.10;99.90
53904;DHT22;39812;52.430;16.936;2022-12-05T01:40:26;2.20;99.90
53904;DHT22;39812;52.430;16.936;2022-12-05T01:42:51;2.20;99.90
53904;DHT22;39812;52.430;16.936;2022-12-05T01:45:37;2.20;99.90
53904;DHT22;39812;52.430;16.936;2022-12-05T01:48:06;2.20;99.90
53904;DHT22;39812;52.430;16.936;2022-12-05T01:50:33;2.20;99.90
53904;DHT22;39812;52.430;16.936;2022-12-05T01:53:00;2.20;99.90
53904;DHT22;39812;52.430;16.936;2022-12-05T01:55:26;2.10;99.90
53904;DHT22;39812;52.430;16.936;2022-12-05T01:57:51;2.30;99.90
53904;DHT22;39812;52.430;16.936;2022-12-05T02:00:19;2.10;99.90
53904;DHT22;39812;52.430;16.936;2022-12-05T02:02:49;2.10;99.90
53904;DHT22;39812;52.430;16.936;2022-12-05T02:05:30;2.10;99.90
53904;DHT22;39812;52.430;16.936;2022-12-05T02:07:57;2.10;99.90
53904;DHT22;39812;52.430;16.936;2022-12-05T02:10:24;2.00;99.90
53904;DHT22;39812;52.430;16.936;2022-12-05T02:12:50;2.10;99.90
53904;DHT22;39812;52.430;16.936;2022-12-05T02:15:39;2.10;99.90
53904;DHT22;39812;52.430;16.936;2022-12-05T02:18:20;2.10;99.90
53904;DHT22;39812;52.430;16.936;2022-12-05T02:21:02;2.10;99.90
53904;DHT22;39812;52.430;16.936;2022-12-05T02:26:40;2.20;99.90
53904;DHT22;39812;52.430;16.936;2022-12-05T02:34:51;2.10;99.90
53904;DHT22;39812;52.430;16.936;2022-12-05T02:37:31;2.00;99.90
53904;DHT22;39812;52.430;16.936;2022-12-05T02:42:46;2.00;99.90
53904;DHT22;39812;52.430;16.936;2022-12-05T02:45:16;2.00;99.90
53904;DHT22;39812;52.430;16.936;2022-12-05T02:47:47;2.00;99.90
53904;DHT22;39812;52.430;16.936;2022-12-05T02:50:21;2.00;99.90
53904;DHT22;39812;52.430;16.936;2022-12-05T02:52:49;2.00;99.90
53904;DHT22;39812;52.430;16.936;2022-12-05T02:55:17;2.00;99.90
53904;DHT22;39812;52.430;16.936;2022-12-05T02:57:45;2.00;99.90
53904;DHT22;39812;52.430;16.936;2022-12-05T03:00:12;2.00;99.90
53904;DHT22;39812;52.430;16.936;2022-12-05T03:02:38;1.90;99.90
53904;DHT22;39812;52.430;16.936;2022-12-05T03:05:44;1.90;99.90
53904;DHT22;39812;52.430;16.936;2022-12-05T03:08:16;1.90;99.90
53904;DHT22;39812;52.430;16.936;2022-12-05T03:10:44;1.90;99.90
53904;DHT22;39812;52.430;16.936;2022-12-05T03:13:18;1.90;99.90
53904;DHT22;39812;52.430;16.936;2022-12-05T03:15:48;1.90;99.90
53904;DHT22;39812;52.430;16.936;2022-12-05T03:18:26;2.00;99.90
53904;DHT22;39812;52.430;16.936;2022-12-05T03:21:03;2.00;99.90
53904;DHT22;39812;52.430;16.936;2022-12-05T03:23:34;2.00;99.90
53904;DHT22;39812;52.430;16.936;2022-12-05T03:26:09;2.00;99.90
53904;DHT22;39812;52.430;16.936;2022-12-05T03:37:43;2.00;99.90
53904;DHT22;39812;52.430;16.936;2022-12-05T03:42:41;2.10;99.90
53904;DHT22;39812;52.430;16.936;2022-12-05T03:45:11;2.10;99.90
53904;DHT22;39812;52.430;16.936;2022-12-05T03:47:47;2.00;99.90
53904;DHT22;39812;52.430;16.936;2022-12-05T03:50:24;2.00;99.90
53904;DHT22;39812;52.430;16.936;2022-12-05T03:52:58;2.00;99.90
53904;DHT22;39812;52.430;16.936;2022-12-05T03:55:28;2.00;99.90
53904;DHT22;39812;52.430;16.936;2022-12-05T03:58:00;2.00;99.90
53904;DHT22;39812;52.430;16.936;2022-12-05T04:00:30;2.00;99.90
53904;DHT22;39812;52.430;16.936;2022-12-05T04:03:15;1.90;99.90
53904;DHT22;39812;52.430;16.936;2022-12-05T04:05:58;2.00;99.90
53904;DHT22;39812;52.430;16.936;2022-12-05T04:08:30;2.00;99.90
53904;DHT22;39812;52.430;16.936;2022-12-05T04:11:01;2.00;99.90
53904;DHT22;39812;52.430;16.936;2022-12-05T04:13:36;2.00;99.90
53904;DHT22;39812;52.430;16.936;2022-12-05T04:16:16;2.00;99.90
53904;DHT22;39812;52.430;16.936;2022-12-05T04:22:15;2.10;99.90
53904;DHT22;39812;52.430;16.936;2022-12-05T04:24:41;2.10;99.90
53904;DHT22;39812;52.430;16.936;2022-12-05T04:30:14;1.90;99.90
53904;DHT22;39812;52.430;16.936;2022-12-05T04:33:04;1.90;99.90
53904;DHT22;39812;52.430;16.936;2022-12-05T04:35:39;1.90;99.90
53904;DHT22;39812;52.430;16.936;2022-12-05T04:38:16;2.00;99.90
53904;DHT22;39812;52.430;16.936;2022-12-05T04:40:53;1.90;99.90
53904;DHT22;39812;52.430;16.936;2022-12-05T04:43:20;1.90;99.90
53904;DHT22;39812;52.430;16.936;2022-12-05T04:45:48;1.90;99.90
53904;DHT22;39812;52.430;16.936;2022-12-05T04:48:16;1.90;99.90
53904;DHT22;39812;52.430;16.936;2022-12-05T04:50:44;1.90;99.90
53904;DHT22;39812;52.430;16.936;2022-12-05T04:53:11;2.00;99.90
53904;DHT22;39812;52.430;16.936;2022-12-05T04:55:42;2.00;99.90
53904;DHT22;39812;52.430;16.936;2022-12-05T04:58:11;2.10;99.90
53904;DHT22;39812;52.430;16.936;2022-12-05T05:01:04;2.10;99.90
53904;DHT22;39812;52.430;16.936;2022-12-05T05:03:57;2.10;99.90
53904;DHT22;39812;52.430;16.936;2022-12-05T05:06:23;2.00;99.90
53904;DHT22;39812;52.430;16.936;2022-12-05T05:08:53;2.00;99.90
53904;DHT22;39812;52.430;16.936;2022-12-05T05:11:27;1.90;99.90
53904;DHT22;39812;52.430;16.936;2022-12-05T05:13:54;2.00;99.90
53904;DHT22;39812;52.430;16.936;2022-12-05T05:16:34;1.90;99.90
53904;DHT22;39812;52.430;16.936;2022-12-05T05:19:00;2.00;99.90
53904;DHT22;39812;52.430;16.936;2022-12-05T05:21:28;1.90;99.90
53904;DHT22;39812;52.430;16.936;2022-12-05T05:23:55;1.90;99.90
53904;DHT22;39812;52.430;16.936;2022-12-05T05:26:22;1.90;99.90
53904;DHT22;39812;52.430;16.936;2022-12-05T05:28:48;1.90;99.90
53904;DHT22;39812;52.430;16.936;2022-12-05T05:31:14;1.90;99.90
53904;DHT22;39812;52.430;16.936;2022-12-05T05:33:40;1.90;99.90
53904;DHT22;39812;52.430;16.936;2022-12-05T05:36:08;1.90;99.90
53904;DHT22;39812;52.430;16.936;2022-12-05T05:38:35;2.00;99.90
53904;DHT22;39812;52.430;16.936;2022-12-05T05:41:02;2.00;99.90
53904;DHT22;39812;52.430;16.936;2022-12-05T05:43:27;2.00;99.90
53904;DHT22;39812;52.430;16.936;2022-12-05T05:45:53;2.00;99.90
53904;DHT22;39812;52.430;16.936;2022-12-05T05:48:18;2.00;99.90
53904;DHT22;39812;52.430;16.936;2022-12-05T05:50:44;2.00;99.90
53904;DHT22;39812;52.430;16.936;2022-12-05T05:53:09;2.10;99.90
53904;DHT22;39812;52.430;16.936;2022-12-05T05:55:38;2.10;99.90
53904;DHT22;39812;52.430;16.936;2022-12-05T05:58:04;2.10;99.90
53904;DHT22;39812;52.430;16.936;2022-12-05T06:00:29;2.00;99.90
53904;DHT22;39812;52.430;16.936;2022-12-05T06:02:54;2.00;99.90
53904;DHT22;39812;52.430;16.936;2022-12-05T06:05:20;2.00;99.90
53904;DHT22;39812;52.430;16.936;2022-12-05T06:07:45;2.00;99.90
53904;DHT22;39812;52.430;16.936;2022-12-05T06:10:11;2.10;99.90
53904;DHT22;39812;52.430;16.936;2022-12-05T06:12:36;2.00;99.90
53904;DHT22;39812;52.430;16.936;2022-12-05T06:15:02;2.00;99.90
53904;DHT22;39812;52.430;16.936;2022-12-05T06:17:29;2.00;99.90
53904;DHT22;39812;52.430;16.936;2022-12-05T06:19:55;2.00;99.90
53904;DHT22;39812;52.430;16.936;2022-12-05T06:22:20;2.00;99.90
53904;DHT22;39812;52.430;16.936;2022-12-05T06:24:45;2.10;99.90
53904;DHT22;39812;52.430;16.936;2022-12-05T06:27:11;2.10;99.90
53904;DHT22;39812;52.430;16.936;2022-12-05T06:29:36;2.00;99.90
53904;DHT22;39812;52.430;16.936;2022-12-05T06:32:02;2.10;99.90
53904;DHT22;39812;52.430;16.936;2022-12-05T06:34:28;2.10;99.90
53904;DHT22;39812;52.430;16.936;2022-12-05T06:36:53;1.90;99.90
53904;DHT22;39812;52.430;16.936;2022-12-05T06:39:19;2.00;99.90
53904;DHT22;39812;52.430;16.936;2022-12-05T06:41:44;2.00;99.90
53904;DHT22;39812;52.430;16.936;2022-12-05T06:44:10;1.90;99.90
53904;DHT22;39812;52.430;16.936;2022-12-05T06:46:35;1.90;99.90
53904;DHT22;39812;52.430;16.936;2022-12-05T06:49:00;1.80;99.90
53904;DHT22;39812;52.430;16.936;2022-12-05T06:51:26;1.90;99.90
53904;DHT22;39812;52.430;16.936;2022-12-05T06:53:52;1.90;99.90
53904;DHT22;39812;52.430;16.936;2022-12-05T06:56:19;1.90;99.90
53904;DHT22;39812;52.430;16.936;2022-12-05T06:58:48;1.90;99.90
53904;DHT22;39812;52.430;16.936;2022-12-05T07:01:16;1.90;99.90
53904;DHT22;39812;52.430;16.936;2022-12-05T07:04:01;1.90;99.90
53904;DHT22;39812;52.430;16.936;2022-12-05T07:06:27;1.90;99.90
53904;DHT22;39812;52.430;16.936;2022-12-05T07:08:53;2.00;99.90
53904;DHT22;39812;52.430;16.936;2022-12-05T07:11:18;1.90;99.90
53904;DHT22;39812;52.430;16.936;2022-12-05T07:13:44;1.90;99.90
53904;DHT22;39812;52.430;16.936;2022-12-05T07:16:10;1.90;99.90
53904;DHT22;39812;52.430;16.936;2022-12-05T07:18:35;1.90;99.90
53904;DHT22;39812;52.430;16.936;2022-12-05T07:21:04;1.90;99.90
53904;DHT22;39812;52.430;16.936;2022-12-05T07:23:30;1.90;99.90
53904;DHT22;39812;52.430;16.936;2022-12-05T07:25:56;2.00;99.90
53904;DHT22;39812;52.430;16.936;2022-12-05T07:28:22;2.00;99.90
53904;DHT22;39812;52.430;16.936;2022-12-05T07:30:48;1.90;99.90
53904;DHT22;39812;52.430;16.936;2022-12-05T07:33:22;1.90;99.90
53904;DHT22;39812;52.430;16.936;2022-12-05T07:35:48;2.00;99.90
53904;DHT22;39812;52.430;16.936;2022-12-05T07:38:13;2.00;99.90
53904;DHT22;39812;52.430;16.936;2022-12-05T07:40:38;2.00;99.90
53904;DHT22;39812;52.430;16.936;2022-12-05T07:43:04;2.00;99.90
53904;DHT22;39812;52.430;16.936;2022-12-05T07:45:29;2.00;99.90
53904;DHT22;39812;52.430;16.936;2022-12-05T07:47:55;2.00;99.90
53904;DHT22;39812;52.430;16.936;2022-12-05T07:50:20;2.00;99.90
53904;DHT22;39812;52.430;16.936;2022-12-05T07:52:46;2.00;99.90
53904;DHT22;39812;52.430;16.936;2022-12-05T07:55:11;2.00;99.90
53904;DHT22;39812;52.430;16.936;2022-12-05T07:57:37;2.10;99.90
53904;DHT22;39812;52.430;16.936;2022-12-05T08:00:02;2.10;99.90
53904;DHT22;39812;52.430;16.936;2022-12-05T08:02:28;2.20;99.90
53904;DHT22;39812;52.430;16.936;2022-12-05T08:04:54;2.30;99.90
53904;DHT22;39812;52.430;16.936;2022-12-05T08:07:19;2.30;99.90
53904;DHT22;39812;52.430;16.936;2022-12-05T08:09:45;2.30;99.90
53904;DHT22;39812;52.430;16.936;2022-12-05T08:12:10;2.30;99.90
53904;DHT22;39812;52.430;16.936;2022-12-05T08:14:35;2.30;99.90
53904;DHT22;39812;52.430;16.936;2022-12-05T08:17:01;2.40;99.90
53904;DHT22;39812;52.430;16.936;2022-12-05T08:19:26;2.50;99.90
53904;DHT22;39812;52.430;16.936;2022-12-05T08:21:53;2.40;99.90
53904;DHT22;39812;52.430;16.936;2022-12-05T08:24:19;2.40;99.90
53904;DHT22;39812;52.430;16.936;2022-12-05T08:26:44;2.30;99.90
53904;DHT22;39812;52.430;16.936;2022-12-05T08:29:12;2.40;99.90
53904;DHT22;39812;52.430;16.936;2022-12-05T08:31:46;2.40;99.90
53904;DHT22;39812;52.430;16.936;2022-12-05T08:34:12;2.30;99.90
53904;DHT22;39812;52.430;16.936;2022-12-05T08:36:39;2.40;99.90
53904;DHT22;39812;52.430;16.936;2022-12-05T08:39:06;2.40;99.90
53904;DHT22;39812;52.430;16.936;2022-12-05T08:41:33;2.50;99.90
53904;DHT22;39812;52.430;16.936;2022-12-05T08:44:01;2.50;99.90
53904;DHT22;39812;52.430;16.936;2022-12-05T08:46:28;2.50;99.90
53904;DHT22;39812;52.430;16.936;2022-12-05T08:48:53;2.50;99.90
53904;DHT22;39812;52.430;16.936;2022-12-05T08:51:19;2.70;99.90
53904;DHT22;39812;52.430;16.936;2022-12-05T08:53:44;2.70;99.90
53904;DHT22;39812;52.430;16.936;2022-12-05T08:56:10;2.70;99.90
53904;DHT22;39812;52.430;16.936;2022-12-05T08:58:36;2.80;99.90
53904;DHT22;39812;52.430;16.936;2022-12-05T09:01:12;2.70;99.90
53904;DHT22;39812;52.430;16.936;2022-12-05T09:03:39;2.70;99.90
53904;DHT22;39812;52.430;16.936;2022-12-05T09:06:13;2.70;99.90
53904;DHT22;39812;52.430;16.936;2022-12-05T09:08:40;2.60;99.90
53904;DHT22;39812;52.430;16.936;2022-12-05T09:13:39;2.80;99.90
53904;DHT22;39812;52.430;16.936;2022-12-05T09:16:10;2.70;99.90
53904;DHT22;39812;52.430;16.936;2022-12-05T09:18:35;2.80;99.90
53904;DHT22;39812;52.430;16.936;2022-12-05T09:21:09;2.80;99.90
53904;DHT22;39812;52.430;16.936;2022-12-05T09:23:35;2.80;99.90
53904;DHT22;39812;52.430;16.936;2022-12-05T09:26:01;2.80;99.90
53904;DHT22;39812;52.430;16.936;2022-12-05T09:28:27;2.80;99.90
53904;DHT22;39812;52.430;16.936;2022-12-05T09:31:02;2.80;99.90
53904;DHT22;39812;52.430;16.936;2022-12-05T09:33:29;2.80;99.90
53904;DHT22;39812;52.430;16.936;2022-12-05T09:35:55;2.80;99.90
53904;DHT22;39812;52.430;16.936;2022-12-05T09:38:21;2.60;99.90
53904;DHT22;39812;52.430;16.936;2022-12-05T09:40:53;2.70;99.90
53904;DHT22;39812;52.430;16.936;2022-12-05T09:46:45;2.70;99.90
53904;DHT22;39812;52.430;16.936;2022-12-05T09:49:12;2.80;99.90
53904;DHT22;39812;52.430;16.936;2022-12-05T09:51:42;2.80;99.90
53904;DHT22;39812;52.430;16.936;2022-12-05T09:54:10;2.80;99.90
53904;DHT22;39812;52.430;16.936;2022-12-05T09:56:37;2.90;99.90
53904;DHT22;39812;52.430;16.936;2022-12-05T09:59:03;2.80;99.90
53904;DHT22;39812;52.430;16.936;2022-12-05T10:04:43;2.90;99.90
53904;DHT22;39812;52.430;16.936;2022-12-05T10:07:33;2.90;99.90
53904;DHT22;39812;52.430;16.936;2022-12-05T10:13:28;3.00;99.90
53904;DHT22;39812;52.430;16.936;2022-12-05T10:15:47;2.90;99.90
53904;DHT22;39812;52.430;16.936;2022-12-05T10:18:39;2.90;99.90
53904;DHT22;39812;52.430;16.936;2022-12-05T10:21:35;2.90;99.90
53904;DHT22;39812;52.430;16.936;2022-12-05T10:24:04;3.00;99.90
53904;DHT22;39812;52.430;16.936;2022-12-05T10:26:42;3.00;99.90
53904;DHT22;39812;52.430;16.936;2022-12-05T10:29:28;2.90;99.90
53904;DHT22;39812;52.430;16.936;2022-12-05T10:32:06;2.90;99.90
53904;DHT22;39812;52.430;16.936;2022-12-05T10:34:40;2.90;99.90
53904;DHT22;39812;52.430;16.936;2022-12-05T10:37:16;2.80;99.90
53904;DHT22;39812;52.430;16.936;2022-12-05T10:39:43;2.90;99.90
53904;DHT22;39812;52.430;16.936;2022-12-05T10:42:15;2.90;99.90
53904;DHT22;39812;52.430;16.936;2022-12-05T10:44:41;2.90;99.90
53904;DHT22;39812;52.430;16.936;2022-12-05T10:47:07;2.90;99.90
53904;DHT22;39812;52.430;16.936;2022-12-05T10:49:33;3.00;99.90
53904;DHT22;39812;52.430;16.936;2022-12-05T10:51:59;3.00;99.90
53904;DHT22;39812;52.430;16.936;2022-12-05T10:54:28;3.00;99.90
53904;DHT22;39812;52.430;16.936;2022-12-05T10:56:55;3.00;99.90
53904;DHT22;39812;52.430;16.936;2022-12-05T10:59:23;3.00;99.90
53904;DHT22;39812;52.430;16.936;2022-12-05T11:01:57;3.10;99.90
53904;DHT22;39812;52.430;16.936;2022-12-05T11:04:41;3.20;99.90
53904;DHT22;39812;52.430;16.936;2022-12-05T11:07:26;3.20;99.90
53904;DHT22;39812;52.430;16.936;2022-12-05T11:09:53;3.20;99.90
53904;DHT22;39812;52.430;16.936;2022-12-05T11:15:03;3.20;99.90
53904;DHT22;39812;52.430;16.936;2022-12-05T11:17:35;3.20;99.90
53904;DHT22;39812;52.430;16.936;2022-12-05T11:20:02;3.30;99.90
53904;DHT22;39812;52.430;16.936;2022-12-05T11:22:33;3.40;99.90
53904;DHT22;39812;52.430;16.936;2022-12-05T11:24:58;3.60;99.90
53904;DHT22;39812;52.430;16.936;2022-12-05T11:27:30;3.70;99.90
53904;DHT22;39812;52.430;16.936;2022-12-05T11:32:37;3.50;99.90
53904;DHT22;39812;52.430;16.936;2022-12-05T11:37:51;3.40;99.90
53904;DHT22;39812;52.430;16.936;2022-12-05T11:40:52;3.50;99.90
53904;DHT22;39812;52.430;16.936;2022-12-05T11:43:53;3.50;99.90
53904;DHT22;39812;52.430;16.936;2022-12-05T11:49:53;3.50;99.90
53904;DHT22;39812;52.430;16.936;2022-12-05T11:58:18;3.50;99.90
53904;DHT22;39812;52.430;16.936;2022-12-05T12:03:56;3.40;99.90
53904;DHT22;39812;52.430;16.936;2022-12-05T12:06:57;3.50;99.90
53904;DHT22;39812;52.430;16.936;2022-12-05T12:09:51;3.50;99.90
53904;DHT22;39812;52.430;16.936;2022-12-05T12:12:27;3.50;99.90
53904;DHT22;39812;52.430;16.936;2022-12-05T12:15:12;3.50;99.90
53904;DHT22;39812;52.430;16.936;2022-12-05T12:18:07;3.40;99.90
53904;DHT22;39812;52.430;16.936;2022-12-05T12:20:50;3.50;99.90
53904;DHT22;39812;52.430;16.936;2022-12-05T12:23:45;3.30;99.90
53904;DHT22;39812;52.430;16.936;2022-12-05T12:26:19;3.30;99.90
53904;DHT22;39812;52.430;16.936;2022-12-05T12:29:10;3.30;99.90
53904;DHT22;39812;52.430;16.936;2022-12-05T12:32:01;3.30;99.90
53904;DHT22;39812;52.430;16.936;2022-12-05T12:34:52;3.30;99.90
53904;DHT22;39812;52.430;16.936;2022-12-05T12:37:42;3.30;99.90
53904;DHT22;39812;52.430;16.936;2022-12-05T12:40:29;3.30;99.90
53904;DHT22;39812;52.430;16.936;2022-12-05T12:43:20;3.30;99.90
53904;DHT22;39812;52.430;16.936;2022-12-05T12:46:07;3.30;99.90
53904;DHT22;39812;52.430;16.936;2022-12-05T12:48:43;3.20;99.90
53904;DHT22;39812;52.430;16.936;2022-12-05T12:51:12;3.20;99.90
53904;DHT22;39812;52.430;16.936;2022-12-05T12:54:10;3.20;99.90
53904;DHT22;39812;52.430;16.936;2022-12-05T13:02:35;3.30;99.90
53904;DHT22;39812;52.430;16.936;2022-12-05T13:08:27;3.20;99.90
53904;DHT22;39812;52.430;16.936;2022-12-05T13:10:54;3.20;99.90
53904;DHT22;39812;52.430;16.936;2022-12-05T13:13:26;3.20;99.90
53904;DHT22;39812;52.430;16.936;2022-12-05T13:15:56;3.20;99.90
53904;DHT22;39812;52.430;16.936;2022-12-05T13:18:24;3.20;99.90
53904;DHT22;39812;52.430;16.936;2022-12-05T13:20:56;3.20;99.90
53904;DHT22;39812;52.430;16.936;2022-12-05T13:23:24;3.30;99.90
53904;DHT22;39812;52.430;16.936;2022-12-05T13:25:53;3.30;99.90
53904;DHT22;39812;52.430;16.936;2022-12-05T13:28:35;3.30;99.90
53904;DHT22;39812;52.430;16.936;2022-12-05T13:31:07;3.20;99.90
53904;DHT22;39812;52.430;16.936;2022-12-05T13:33:35;3.20;99.90
53904;DHT22;39812;52.430;16.936;2022-12-05T13:36:11;3.20;99.90
53904;DHT22;39812;52.430;16.936;2022-12-05T13:39:02;3.10;99.90
53904;DHT22;39812;52.430;16.936;2022-12-05T13:41:53;3.00;99.90
53904;DHT22;39812;52.430;16.936;2022-12-05T13:52:54;3.00;99.90
53904;DHT22;39812;52.430;16.936;2022-12-05T13:55:35;2.90;99.90
53904;DHT22;39812;52.430;16.936;2022-12-05T14:00:46;2.90;99.90
53904;DHT22;39812;52.430;16.936;2022-12-05T14:06:03;2.90;99.90
53904;DHT22;39812;52.430;16.936;2022-12-05T14:15:51;3.00;99.90
53904;DHT22;39812;52.430;16.936;2022-12-05T14:21:22;2.90;99.90
53904;DHT22;39812;52.430;16.936;2022-12-05T14:24:22;2.90;99.90
53904;DHT22;39812;52.430;16.936;2022-12-05T14:26:58;2.90;99.90
53904;DHT22;39812;52.430;16.936;2022-12-05T14:29:51;2.90;99.90
53904;DHT22;39812;52.430;16.936;2022-12-05T14:32:23;2.90;99.90
53904;DHT22;39812;52.430;16.936;2022-12-05T14:35:03;3.00;99.90
53904;DHT22;39812;52.430;16.936;2022-12-05T14:37:33;2.90;99.90
53904;DHT22;39812;52.430;16.936;2022-12-05T14:40:02;2.90;99.90
53904;DHT22;39812;52.430;16.936;2022-12-05T14:45:29;2.90;99.90
53904;DHT22;39812;52.430;16.936;2022-12-05T14:47:58;2.90;99.90
53904;DHT22;39812;52.430;16.936;2022-12-05T14:50:38;2.90;99.90
53904;DHT22;39812;52.430;16.936;2022-12-05T14:55:54;2.90;99.90
53904;DHT22;39812;52.430;16.936;2022-12-05T14:58:39;2.90;99.90
53904;DHT22;39812;52.430;16.936;2022-12-05T15:01:18;2.90;99.90
53904;DHT22;39812;52.430;16.936;2022-12-05T15:06:49;2.90;99.90
53904;DHT22;39812;52.430;16.936;2022-12-05T15:09:38;2.90;99.90
53904;DHT22;39812;52.430;16.936;2022-12-05T15:12:12;2.90;99.90
53904;DHT22;39812;52.430;16.936;2022-12-05T15:14:55;2.90;99.90
53904;DHT22;39812;52.430;16.936;2022-12-05T15:17:34;3.00;99.90
53904;DHT22;39812;52.430;16.936;2022-12-05T15:20:07;2.90;99.90
53904;DHT22;39812;52.430;16.936;2022-12-05T15:22:36;3.00;99.90
53904;DHT22;39812;52.430;16.936;2022-12-05T15:25:25;3.00;99.90
53904;DHT22;39812;52.430;16.936;2022-12-05T15:28:03;2.90;99.90
53904;DHT22;39812;52.430;16.936;2022-12-05T15:30:30;3.00;99.90
53904;DHT22;39812;52.430;16.936;2022-12-05T15:32:56;2.90;99.90
53904;DHT22;39812;52.430;16.936;2022-12-05T15:35:24;2.90;99.90
53904;DHT22;39812;52.430;16.936;2022-12-05T15:37:56;3.00;99.90
53904;DHT22;39812;52.430;16.936;2022-12-05T15:40:23;3.00;99.90
53904;DHT22;39812;52.430;16.936;2022-12-05T15:42:52;2.90;99.90
53904;DHT22;39812;52.430;16.936;2022-12-05T15:45:27;3.00;99.90
53904;DHT22;39812;52.430;16.936;2022-12-05T15:53:28;3.00;99.90
53904;DHT22;39812;52.430;16.936;2022-12-05T15:55:50;3.00;99.90
53904;DHT22;39812;52.430;16.936;2022-12-05T15:58:23;3.00;99.90
53904;DHT22;39812;52.430;16.936;2022-12-05T16:00:53;3.00;99.90
53904;DHT22;39812;52.430;16.936;2022-12-05T16:03:37;3.00;99.90
53904;DHT22;39812;52.430;16.936;2022-12-05T16:06:10;3.00;99.90
53904;DHT22;39812;52.430;16.936;2022-12-05T16:08:46;3.00;99.90
53904;DHT22;39812;52.430;16.936;2022-12-05T16:11:12;3.10;99.90
53904;DHT22;39812;52.430;16.936;2022-12-05T16:13:47;3.00;99.90
53904;DHT22;39812;52.430;16.936;2022-12-05T16:16:20;3.10;99.90
53904;DHT22;39812;52.430;16.936;2022-12-05T16:18:55;3.10;99.90
53904;DHT22;39812;52.430;16.936;2022-12-05T16:21:33;3.00;99.90
53904;DHT22;39812;52.430;16.936;2022-12-05T16:24:21;3.10;99.90
53904;DHT22;39812;52.430;16.936;2022-12-05T16:27:00;3.10;99.90
53904;DHT22;39812;52.430;16.936;2022-12-05T16:29:29;3.10;99.90
53904;DHT22;39812;52.430;16.936;2022-12-05T16:31:57;3.10;99.90
53904;DHT22;39812;52.430;16.936;2022-12-05T16:34:24;3.10;99.90
53904;DHT22;39812;52.430;16.936;2022-12-05T16:36:51;3.20;99.90
53904;DHT22;39812;52.430;16.936;2022-12-05T16:39:19;3.20;99.90
53904;DHT22;39812;52.430;16.936;2022-12-05T16:41:44;3.20;99.90
53904;DHT22;39812;52.430;16.936;2022-12-05T16:44:48;3.20;99.90
53904;DHT22;39812;52.430;16.936;2022-12-05T16:47:23;3.20;99.90
53904;DHT22;39812;52.430;16.936;2022-12-05T16:49:49;3.20;99.90
53904;DHT22;39812;52.430;16.936;2022-12-05T16:52:15;3.10;99.90
53904;DHT22;39812;52.430;16.936;2022-12-05T16:54:42;3.20;99.90
53904;DHT22;39812;52.430;16.936;2022-12-05T16:57:12;3.20;99.90
53904;DHT22;39812;52.430;16.936;2022-12-05T16:59:39;3.20;99.90
53904;DHT22;39812;52.430;16.936;2022-12-05T17:02:16;3.30;99.90
53904;DHT22;39812;52.430;16.936;2022-12-05T17:04:42;3.20;99.90
53904;DHT22;39812;52.430;16.936;2022-12-05T17:07:08;3.20;99.90
53904;DHT22;39812;52.430;16.936;2022-12-05T17:09:33;3.20;99.90
53904;DHT22;39812;52.430;16.936;2022-12-05T17:12:08;3.20;99.90
53904;DHT22;39812;52.430;16.936;2022-12-05T17:14:34;3.20;99.90
53904;DHT22;39812;52.430;16.936;2022-12-05T17:17:00;3.20;99.90
53904;DHT22;39812;52.430;16.936;2022-12-05T17:19:25;3.20;99.90
53904;DHT22;39812;52.430;16.936;2022-12-05T17:21:52;3.20;99.90
53904;DHT22;39812;52.430;16.936;2022-12-05T17:24:18;3.30;99.90
53904;DHT22;39812;52.430;16.936;2022-12-05T17:26:44;3.30;99.90
53904;DHT22;39812;52.430;16.936;2022-12-05T17:29:10;3.30;99.90
53904;DHT22;39812;52.430;16.936;2022-12-05T17:31:36;3.30;99.90
53904;DHT22;39812;52.430;16.936;2022-12-05T17:34:02;3.30;99.90
53904;DHT22;39812;52.430;16.936;2022-12-05T17:36:28;3.40;99.90
53904;DHT22;39812;52.430;16.936;2022-12-05T17:38:54;3.30;99.90
53904;DHT22;39812;52.430;16.936;2022-12-05T17:41:21;3.30;99.90
53904;DHT22;39812;52.430;16.936;2022-12-05T17:43:47;3.40;99.90
53904;DHT22;39812;52.430;16.936;2022-12-05T17:46:21;3.40;99.90